createdAt,value
2018-12-20T00:01:57.616Z,13.77
2018-12-20T00:04:27.975Z,15.60
2018-12-20T00:06:58.747Z,33.60
2018-12-20T00:09:29.225Z,30.80
2018-12-20T00:11:59.882Z,20.63
2018-12-20T00:14:30.780Z,17.50
2018-12-20T00:17:06.349Z,17.93
2018-12-20T00:19:36.659Z,18.50
2018-12-20T00:22:07.231Z,31.97
2018-12-20T00:24:37.872Z,26.03
2018-12-20T00:27:08.331Z,28.10
2018-12-20T00:29:38.422Z,27.40
2018-12-20T00:32:08.959Z,17.50
2018-12-20T00:34:39.225Z,14.33
2018-12-20T00:37:09.225Z,21.07
2018-12-20T00:39:40.030Z,14.63
2018-12-20T00:42:09.960Z,19.23
2018-12-20T00:44:40.139Z,15.10
2018-12-20T00:47:10.429Z,14.53
2018-12-20T00:49:40.580Z,22.37
2018-12-20T00:52:10.909Z,15.83
2018-12-20T00:54:41.412Z,24.00
2018-12-20T00:57:12.113Z,22.70
2018-12-20T00:59:42.126Z,25.90
2018-12-20T01:02:12.832Z,21.47
2018-12-20T01:04:43.226Z,19.93
2018-12-20T01:07:13.820Z,22.47
2018-12-20T01:09:44.039Z,14.13
2018-12-20T01:12:15.472Z,18.77
2018-12-20T01:14:46.611Z,14.57
2018-12-20T01:17:18.495Z,19.67
2018-12-20T01:19:48.967Z,25.63
2018-12-20T01:22:19.655Z,30.73
2018-12-20T01:24:49.614Z,24.67
2018-12-20T01:27:21.760Z,24.40
2018-12-20T01:29:52.135Z,23.43
2018-12-20T01:32:22.670Z,17.33
2018-12-20T01:34:52.810Z,18.33
2018-12-20T01:37:23.107Z,28.80
2018-12-20T01:39:53.627Z,25.17
2018-12-20T01:42:23.764Z,23.87
2018-12-20T01:44:54.096Z,27.83
2018-12-20T01:47:23.959Z,23.10
2018-12-20T01:49:57.984Z,26.83
2018-12-20T01:52:28.866Z,21.40
2018-12-20T01:54:59.429Z,26.40
2018-12-20T01:57:30.639Z,22.17
2018-12-20T02:00:00.962Z,27.20
2018-12-20T02:02:32.422Z,13.93
2018-12-20T02:05:02.890Z,20.13
2018-12-20T02:07:33.087Z,19.83
2018-12-20T02:10:04.065Z,15.17
2018-12-20T02:12:35.442Z,20.33
2018-12-20T02:15:06.709Z,13.73
2018-12-20T02:17:37.086Z,28.83
2018-12-20T02:20:07.738Z,20.93
2018-12-20T02:22:38.120Z,22.40
2018-12-20T02:25:08.458Z,16.60
2018-12-20T02:27:38.565Z,15.13
2018-12-20T02:30:10.359Z,28.73
2018-12-20T02:32:40.903Z,13.17
2018-12-20T02:35:11.110Z,25.03
2018-12-20T02:37:41.546Z,29.37
2018-12-20T02:40:11.857Z,17.90
2018-12-20T02:42:42.481Z,25.37
2018-12-20T02:45:13.101Z,23.97
2018-12-20T02:47:43.961Z,12.47
2018-12-20T02:50:14.159Z,17.43
2018-12-20T02:52:44.682Z,26.93
2018-12-20T02:55:15.377Z,29.43
2018-12-20T02:57:47.130Z,23.57
2018-12-20T03:00:17.972Z,17.27
2018-12-20T03:02:48.329Z,16.33
2018-12-20T03:05:18.319Z,10.73
2018-12-20T03:07:48.405Z,22.87
2018-12-20T03:10:19.140Z,17.50
2018-12-20T03:12:49.940Z,20.33
2018-12-20T03:15:21.551Z,28.20
2018-12-20T03:17:51.930Z,29.30
2018-12-20T03:20:22.759Z,25.70
2018-12-20T03:22:53.245Z,10.27
2018-12-20T03:25:23.904Z,15.23
2018-12-20T03:27:55.263Z,24.53
2018-12-20T03:30:25.820Z,22.93
2018-12-20T03:32:56.302Z,19.00
2018-12-20T03:35:26.805Z,25.20
2018-12-20T03:37:57.372Z,25.20
2018-12-20T03:40:27.572Z,26.90
2018-12-20T03:42:59.400Z,29.13
2018-12-20T03:45:29.858Z,27.83
2018-12-20T03:48:00.550Z,27.43
2018-12-20T03:50:31.207Z,25.83
2018-12-20T03:53:01.354Z,15.70
2018-12-20T03:55:32.097Z,23.77
2018-12-20T03:58:02.296Z,26.03
2018-12-20T04:00:33.239Z,15.37
2018-12-20T04:03:04.370Z,30.20
2018-12-20T04:05:34.740Z,13.23
2018-12-20T04:08:11.585Z,28.30
2018-12-20T04:10:41.620Z,21.50
2018-12-20T04:13:12.525Z,19.97
2018-12-20T04:15:43.596Z,20.03
2018-12-20T04:18:14.339Z,13.10
2018-12-20T04:20:44.910Z,27.43
2018-12-20T04:23:15.719Z,28.33
2018-12-20T04:25:46.310Z,27.90
2018-12-20T04:28:16.400Z,22.40
2018-12-20T04:30:46.819Z,19.80
2018-12-20T04:33:17.191Z,23.97
2018-12-20T04:35:47.495Z,23.90
2018-12-20T04:38:17.975Z,18.73
2018-12-20T04:40:48.903Z,19.07
2018-12-20T04:43:19.229Z,24.07
2018-12-20T04:45:50.003Z,27.63
2018-12-20T04:48:22.756Z,15.80
2018-12-20T04:50:53.048Z,25.73
2018-12-20T04:53:24.361Z,17.90
2018-12-20T04:55:54.680Z,27.10
2018-12-20T04:58:25.269Z,25.40
2018-12-20T05:00:55.788Z,22.90
2018-12-20T05:03:26.730Z,30.90
2018-12-20T05:05:57.158Z,27.10
2018-12-20T05:08:27.797Z,20.17
2018-12-20T05:10:58.918Z,27.67
2018-12-20T05:13:29.401Z,27.73
2018-12-20T05:15:59.526Z,28.17
2018-12-20T05:18:30.141Z,18.80
2018-12-20T05:21:00.505Z,23.73
2018-12-20T05:23:31.388Z,25.27
2018-12-20T05:26:02.802Z,27.73
2018-12-20T05:28:33.117Z,22.33
2018-12-20T05:31:03.867Z,25.53
2018-12-20T05:33:34.691Z,29.57
2018-12-20T05:36:05.355Z,19.73
2018-12-20T05:38:36.306Z,27.07
2018-12-20T05:41:07.190Z,17.10
2018-12-20T05:43:37.924Z,21.10
2018-12-20T05:46:08.713Z,20.70
2018-12-20T05:48:39.268Z,27.87
2018-12-20T05:51:10.781Z,23.23
2018-12-20T05:53:41.258Z,23.67
2018-12-20T05:56:11.697Z,21.50
2018-12-20T05:58:44.575Z,26.00
2018-12-20T06:01:14.929Z,33.13
2018-12-20T06:03:45.197Z,28.53
2018-12-20T06:06:16.290Z,30.27
2018-12-20T06:08:46.596Z,29.23
2018-12-20T06:11:17.088Z,27.90
2018-12-20T06:13:47.631Z,23.47
2018-12-20T06:16:18.098Z,17.87
2018-12-20T06:18:48.498Z,22.60
2018-12-20T06:21:18.698Z,27.70
2018-12-20T06:23:49.787Z,15.73
2018-12-20T06:26:19.963Z,21.17
2018-12-20T06:28:50.767Z,22.03
2018-12-20T06:31:21.480Z,26.70
2018-12-20T06:33:52.385Z,23.37
2018-12-20T06:36:22.928Z,24.53
2018-12-20T06:38:53.293Z,30.73
2018-12-20T06:41:24.117Z,23.53
2018-12-20T06:43:54.517Z,32.20
2018-12-20T06:46:25.497Z,24.20
2018-12-20T06:48:55.940Z,14.13
2018-12-20T06:51:26.207Z,22.43
2018-12-20T06:53:56.447Z,28.93
2018-12-20T06:56:27.500Z,22.83
2018-12-20T06:58:57.825Z,23.93
2018-12-20T07:01:28.610Z,30.80
2018-12-20T07:03:59.026Z,29.60
2018-12-20T07:06:32.585Z,28.20
2018-12-20T07:09:03.526Z,31.63
2018-12-20T07:11:33.747Z,27.00
2018-12-20T07:14:04.600Z,23.93
2018-12-20T07:16:35.456Z,24.10
2018-12-20T07:19:06.014Z,28.47
2018-12-20T07:21:37.219Z,29.80
2018-12-20T07:24:07.596Z,31.17
2018-12-20T07:26:37.568Z,24.03
2018-12-20T07:29:08.152Z,28.33
2018-12-20T07:31:38.539Z,30.37
2018-12-20T07:34:08.840Z,28.27
2018-12-20T07:36:40.059Z,30.13
2018-12-20T07:39:10.522Z,27.07
2018-12-20T07:41:42.536Z,23.17
2018-12-20T07:44:13.368Z,16.80
2018-12-20T07:46:43.451Z,30.43
2018-12-20T07:49:14.437Z,31.83
2018-12-20T07:51:45.988Z,26.10
2018-12-20T07:54:17.620Z,28.97
2018-12-20T07:56:48.999Z,28.27
2018-12-20T07:59:23.451Z,23.77
2018-12-20T08:01:51.878Z,19.70
2018-12-20T08:04:22.879Z,27.57
2018-12-20T08:06:54.063Z,26.60
2018-12-20T08:09:24.738Z,28.80
2018-12-20T08:11:55.332Z,28.53
2018-12-20T08:14:26.165Z,24.60
2018-12-20T08:16:56.474Z,24.67
2018-12-20T08:19:36.022Z,24.63
2018-12-20T08:22:02.255Z,16.30
2018-12-20T08:24:33.532Z,30.23
2018-12-20T08:27:04.273Z,24.77
2018-12-20T08:29:35.092Z,29.23
2018-12-20T08:32:05.436Z,20.23
2018-12-20T08:34:36.624Z,21.77
2018-12-20T08:37:08.350Z,26.83
2018-12-20T08:39:39.145Z,31.57
2018-12-20T08:42:09.906Z,29.90
2018-12-20T08:44:40.962Z,26.80
2018-12-20T08:47:11.947Z,20.03
2018-12-20T08:49:42.539Z,20.80
2018-12-20T08:52:13.652Z,17.97
2018-12-20T08:54:44.400Z,20.57
2018-12-20T08:57:15.701Z,27.33
2018-12-20T08:59:46.113Z,23.80
2018-12-20T09:02:17.130Z,17.47
2018-12-20T09:04:47.772Z,15.80
2018-12-20T09:07:18.394Z,22.37
2018-12-20T09:09:48.847Z,23.17
2018-12-20T09:12:19.431Z,23.03
2018-12-20T09:14:51.275Z,22.67
2018-12-20T09:17:21.369Z,15.90
2018-12-20T09:19:52.967Z,25.87
2018-12-20T09:22:23.311Z,30.57
2018-12-20T09:24:53.529Z,14.80
2018-12-20T09:27:24.238Z,16.87
2018-12-20T09:29:54.893Z,20.17
2018-12-20T09:32:25.819Z,26.57
2018-12-20T09:34:56.501Z,25.27
2018-12-20T09:37:27.434Z,28.33
2018-12-20T09:39:58.679Z,28.10
2018-12-20T09:42:29.443Z,32.73
2018-12-20T09:44:59.840Z,27.03
2018-12-20T09:47:35.982Z,23.83
2018-12-20T09:50:07.521Z,27.13
2018-12-20T09:52:37.961Z,25.93
2018-12-20T09:55:08.574Z,26.20
2018-12-20T09:57:39.599Z,27.37
2018-12-20T10:00:10.727Z,27.53
2018-12-20T10:02:40.968Z,27.37
2018-12-20T10:05:11.460Z,27.93
2018-12-20T10:07:41.771Z,31.73
2018-12-20T10:10:13.095Z,28.83
2018-12-20T10:12:44.002Z,25.30
2018-12-20T10:15:14.690Z,28.90
2018-12-20T10:17:45.719Z,21.63
2018-12-20T10:20:16.853Z,23.40
2018-12-20T10:22:47.795Z,30.67
2018-12-20T10:25:18.843Z,27.40
2018-12-20T10:27:49.310Z,26.23
2018-12-20T10:30:19.589Z,30.50
2018-12-20T10:32:55.274Z,26.73
2018-12-20T10:35:26.537Z,32.43
2018-12-20T10:37:56.969Z,30.57
2018-12-20T10:40:27.881Z,18.50
2018-12-20T10:42:57.858Z,30.73
2018-12-20T10:45:28.246Z,20.47
2018-12-20T10:47:59.250Z,16.23
2018-12-20T10:50:29.775Z,26.50
2018-12-20T10:53:00.233Z,28.53
2018-12-20T10:55:30.737Z,29.43
2018-12-20T10:58:01.984Z,21.37
2018-12-20T11:02:40.758Z,27.87
2018-12-20T11:05:16.172Z,28.40
2018-12-20T11:07:51.440Z,26.57
2018-12-20T11:10:26.110Z,24.30
2018-12-20T11:12:56.172Z,34.00
2018-12-20T11:15:26.761Z,34.23
2018-12-20T11:17:57.626Z,28.73
2018-12-20T11:20:27.800Z,33.83
2018-12-20T11:22:59.608Z,32.83
2018-12-20T11:25:32.904Z,33.83
2018-12-20T11:28:03.568Z,32.93
2018-12-20T11:30:39.926Z,31.87
2018-12-20T11:33:10.428Z,31.97
2018-12-20T11:35:40.755Z,33.00
2018-12-20T11:38:11.541Z,24.77
2018-12-20T11:40:42.349Z,32.40
2018-12-20T11:43:12.722Z,28.73
2018-12-20T11:45:42.773Z,32.90
2018-12-20T11:48:13.403Z,29.33
2018-12-20T11:50:44.425Z,33.00
2018-12-20T11:53:14.433Z,24.40
2018-12-20T11:55:45.071Z,23.67
2018-12-20T11:58:15.425Z,31.10
2018-12-20T12:00:46.033Z,33.37
2018-12-20T12:03:17.713Z,18.03
2018-12-20T12:05:48.552Z,33.00
2018-12-20T12:08:19.340Z,32.67
2018-12-20T12:10:50.532Z,39.40
2018-12-20T12:13:21.531Z,28.20
2018-12-20T12:15:52.194Z,31.80
2018-12-20T12:18:22.792Z,31.60
2018-12-20T12:20:53.682Z,33.57
2018-12-20T12:23:24.059Z,33.37
2018-12-20T12:25:54.940Z,34.33
2018-12-20T12:28:25.748Z,35.13
2018-12-20T12:30:56.306Z,32.57
2018-12-20T12:33:27.540Z,30.47
2018-12-20T12:35:57.939Z,33.37
2018-12-20T12:38:28.553Z,21.63
2018-12-20T12:40:59.027Z,30.40
2018-12-20T12:43:29.659Z,23.17
2018-12-20T12:46:00.752Z,28.37
2018-12-20T12:48:30.689Z,32.23
2018-12-20T12:51:01.388Z,33.67
2018-12-20T12:53:31.871Z,27.43
2018-12-20T12:56:03.321Z,32.93
2018-12-20T12:58:34.346Z,32.07
2018-12-20T13:01:05.100Z,36.03
2018-12-20T13:03:36.345Z,37.17
2018-12-20T13:06:06.963Z,35.17
2018-12-20T13:08:37.259Z,31.87
2018-12-20T13:11:07.588Z,28.50
2018-12-20T13:13:43.727Z,30.27
2018-12-20T13:16:14.681Z,33.50
2018-12-20T13:18:45.001Z,33.47
2018-12-20T13:21:15.422Z,31.20
2018-12-20T13:23:46.078Z,26.20
2018-12-20T13:26:16.483Z,31.10
2018-12-20T13:28:46.842Z,24.30
2018-12-20T13:31:17.928Z,21.50
2018-12-20T13:33:48.348Z,33.13
2018-12-20T13:36:20.160Z,28.53
2018-12-20T13:38:50.857Z,26.63
2018-12-20T13:41:21.096Z,35.17
2018-12-20T13:43:51.419Z,33.37
2018-12-20T13:46:21.583Z,26.80
2018-12-20T13:48:52.014Z,14.07
2018-12-20T13:51:22.645Z,29.87
2018-12-20T13:53:52.939Z,30.00
2018-12-20T13:56:23.521Z,33.50
2018-12-20T13:58:54.303Z,34.03
2018-12-20T14:01:25.390Z,18.63
2018-12-20T14:03:57.227Z,20.03
2018-12-20T14:06:28.664Z,33.33
2018-12-20T14:08:59.419Z,35.57
2018-12-20T14:11:32.170Z,30.77
2018-12-20T14:14:02.797Z,33.40
2018-12-20T14:16:33.366Z,34.30
2018-12-20T14:19:04.159Z,27.50
2018-12-20T14:21:35.245Z,30.60
2018-12-20T14:24:06.743Z,34.87
2018-12-20T14:26:37.641Z,31.43
2018-12-20T14:29:08.133Z,35.20
2018-12-20T14:31:39.052Z,35.00
2018-12-20T14:34:09.682Z,37.03
2018-12-20T14:36:40.260Z,33.27
2018-12-20T14:39:10.808Z,35.97
2018-12-20T14:41:41.799Z,36.43
2018-12-20T14:44:12.695Z,28.50
2018-12-20T14:46:43.021Z,36.80
2018-12-20T14:49:14.052Z,37.57
2018-12-20T14:51:44.988Z,41.03
2018-12-20T14:54:16.110Z,34.13
2018-12-20T14:56:46.406Z,32.17
2018-12-20T14:59:17.119Z,34.57
2018-12-20T15:01:49.352Z,36.53
2018-12-20T15:04:19.877Z,36.27
2018-12-20T15:06:50.203Z,36.20
2018-12-20T15:09:21.465Z,33.57
2018-12-20T15:11:54.986Z,39.97
2018-12-20T15:14:31.623Z,38.00
2018-12-20T15:17:02.462Z,41.30
2018-12-20T15:19:33.463Z,45.83
2018-12-20T15:22:04.051Z,41.30
2018-12-20T15:24:34.890Z,32.53
2018-12-20T15:27:05.337Z,44.57
2018-12-20T15:29:40.565Z,43.00
2018-12-20T15:32:12.004Z,27.87
2018-12-20T15:34:42.565Z,43.40
2018-12-20T15:37:13.181Z,42.20
2018-12-20T15:39:45.424Z,46.73
2018-12-20T15:42:16.146Z,34.47
2018-12-20T15:44:46.866Z,37.77
2018-12-20T15:47:17.806Z,53.67
2018-12-20T15:49:49.724Z,27.20
2018-12-20T15:52:20.079Z,52.03
2018-12-20T15:54:50.814Z,53.17
2018-12-20T15:57:28.045Z,50.57
2018-12-20T16:00:00.972Z,52.07
2018-12-20T16:02:31.933Z,55.23
2018-12-20T16:05:02.773Z,49.67
2018-12-20T16:07:33.231Z,44.13
2018-12-20T16:10:04.210Z,55.43
2018-12-20T16:12:43.253Z,49.00
2018-12-20T16:15:16.468Z,59.10
2018-12-20T16:17:47.003Z,56.20
2018-12-20T16:20:17.420Z,54.90
2018-12-20T16:22:49.510Z,55.57
2018-12-20T16:25:20.396Z,63.57
2018-12-20T16:27:51.134Z,52.20
2018-12-20T16:30:22.372Z,51.80
2018-12-20T16:32:53.208Z,56.57
2018-12-20T16:35:24.000Z,58.50
2018-12-20T16:37:54.822Z,42.03
2018-12-20T16:40:26.051Z,24.87
2018-12-20T16:42:56.303Z,51.57
2018-12-20T16:45:26.839Z,59.27
2018-12-20T16:47:57.452Z,59.57
2018-12-20T16:50:29.496Z,40.87
2018-12-20T16:53:00.054Z,60.10
2018-12-20T16:55:30.927Z,51.60
2018-12-20T16:58:01.937Z,59.93
2018-12-20T17:00:32.360Z,63.57
2018-12-20T17:03:02.793Z,56.67
2018-12-20T17:05:34.277Z,55.23
2018-12-20T17:08:05.842Z,58.80
2018-12-20T17:10:36.430Z,43.33
2018-12-20T17:13:06.974Z,50.43
2018-12-20T17:15:38.424Z,65.27
2018-12-20T17:18:08.357Z,68.87
2018-12-20T17:20:38.629Z,65.20
2018-12-20T17:23:09.445Z,57.93
2018-12-20T17:25:40.222Z,64.90
2018-12-20T17:28:10.714Z,59.80
2018-12-20T17:30:41.019Z,67.37
2018-12-20T17:33:11.602Z,39.60
2018-12-20T17:35:43.402Z,43.13
2018-12-20T17:38:15.332Z,64.33
2018-12-20T17:40:45.599Z,62.70
2018-12-20T17:43:18.210Z,60.40
2018-12-20T17:45:48.787Z,68.17
2018-12-20T17:48:19.420Z,72.00
2018-12-20T17:50:50.132Z,75.13
2018-12-20T17:53:20.130Z,69.60
2018-12-20T17:55:51.136Z,65.70
2018-12-20T17:58:23.343Z,66.33
2018-12-20T18:00:54.828Z,45.90
2018-12-20T18:03:25.703Z,63.63
2018-12-20T18:05:56.327Z,69.53
2018-12-20T18:08:26.795Z,69.30
2018-12-20T18:10:57.016Z,67.30
2018-12-20T18:13:26.998Z,89.00
2018-12-20T18:15:57.142Z,69.43
2018-12-20T18:18:27.257Z,70.37
2018-12-20T18:20:57.289Z,69.53
2018-12-20T18:23:27.247Z,67.80
2018-12-20T18:25:57.399Z,61.83
2018-12-20T18:28:27.328Z,67.93
2018-12-20T18:30:57.554Z,65.17
2018-12-20T18:33:27.602Z,69.43
2018-12-20T18:35:57.996Z,70.87
2018-12-20T18:38:28.376Z,68.20
2018-12-20T18:40:58.821Z,63.60
2018-12-20T18:43:29.028Z,69.77
2018-12-20T18:45:58.689Z,70.43
2018-12-20T18:48:29.185Z,71.13
2018-12-20T18:50:59.266Z,63.00
2018-12-20T18:53:29.555Z,64.57
2018-12-20T18:55:59.443Z,65.73
2018-12-20T18:58:29.543Z,63.43
2018-12-20T19:00:59.679Z,48.43
2018-12-20T19:03:29.936Z,71.23
2018-12-20T19:05:59.686Z,67.30
2018-12-20T19:08:36.772Z,67.23
2018-12-20T19:11:08.776Z,64.73
2018-12-20T19:13:39.599Z,67.37
2018-12-20T19:16:12.792Z,71.20
2018-12-20T19:18:46.920Z,68.83
2018-12-20T19:21:19.357Z,64.40
2018-12-20T19:23:54.665Z,77.70
2018-12-20T19:26:26.467Z,76.87
2018-12-20T19:28:57.278Z,63.30
2018-12-20T19:31:27.319Z,79.33
2018-12-20T19:34:03.581Z,62.37
2018-12-20T19:36:33.822Z,72.40
2018-12-20T19:39:11.609Z,69.17
2018-12-20T19:41:44.079Z,68.50
2018-12-20T19:44:16.263Z,77.80
2018-12-20T19:46:49.843Z,78.57
2018-12-20T19:49:20.723Z,62.33
2018-12-20T19:51:52.033Z,62.37
2018-12-20T19:54:24.155Z,71.53
2018-12-20T19:56:54.314Z,51.10
2018-12-20T19:59:25.362Z,75.53
2018-12-20T20:02:04.765Z,64.50
2018-12-20T20:04:40.766Z,73.70
2018-12-20T20:07:18.044Z,63.17
2018-12-20T20:09:50.300Z,73.43
2018-12-20T20:12:20.933Z,76.63
2018-12-20T20:14:52.384Z,72.67
2018-12-20T20:17:24.831Z,71.47
2018-12-20T20:19:59.720Z,65.67
2018-12-20T20:22:30.496Z,57.67
2018-12-20T20:25:08.570Z,52.90
2018-12-20T20:27:46.205Z,71.60
2018-12-20T20:30:18.669Z,68.47
2018-12-20T20:32:50.667Z,62.80
2018-12-20T20:35:21.171Z,66.97
2018-12-20T20:37:52.571Z,69.10
2018-12-20T20:40:23.309Z,52.90
2018-12-20T20:42:55.030Z,62.90
2018-12-20T20:45:26.228Z,70.83
2018-12-20T20:48:05.358Z,65.20
2018-12-20T20:50:40.340Z,67.00
2018-12-20T20:53:15.190Z,52.03
2018-12-20T20:55:45.558Z,60.77
2018-12-20T20:58:20.130Z,66.40
2018-12-20T21:00:51.746Z,50.63
2018-12-20T21:03:25.023Z,55.00
2018-12-20T21:05:55.800Z,55.27
2018-12-20T21:08:27.132Z,52.60
2018-12-20T21:10:59.578Z,48.33
2018-12-20T21:13:31.531Z,64.20
2018-12-20T21:16:03.554Z,68.87
2018-12-20T21:18:36.315Z,55.97
2018-12-20T21:21:11.036Z,50.90
2018-12-20T21:23:42.143Z,69.93
2018-12-20T21:26:13.442Z,62.67
2018-12-20T21:28:45.699Z,68.13
2018-12-20T21:31:16.317Z,66.47
2018-12-20T21:33:50.162Z,65.90
2018-12-20T21:36:22.182Z,76.40
2018-12-20T21:38:52.905Z,68.63
2018-12-20T21:41:24.077Z,61.80
2018-12-20T21:43:54.352Z,36.63
2018-12-20T21:46:25.621Z,69.30
2018-12-20T21:48:56.165Z,73.63
2018-12-20T21:51:28.044Z,55.00
2018-12-20T21:53:58.459Z,64.53
2018-12-20T21:56:28.325Z,78.07
2018-12-20T21:58:59.019Z,74.40
2018-12-20T22:01:30.056Z,60.67
2018-12-20T22:04:00.595Z,81.77
2018-12-20T22:06:31.084Z,70.13
2018-12-20T22:09:01.391Z,47.40
2018-12-20T22:11:32.093Z,79.47
2018-12-20T22:14:02.532Z,68.80
2018-12-20T22:16:32.916Z,70.97
2018-12-20T22:19:03.648Z,77.53
2018-12-20T22:21:34.855Z,50.70
2018-12-20T22:24:05.424Z,68.40
2018-12-20T22:26:35.964Z,79.83
2018-12-20T22:29:07.376Z,65.83
2018-12-20T22:31:38.135Z,78.03
2018-12-20T22:34:09.284Z,66.93
2018-12-20T22:36:39.769Z,51.20
2018-12-20T22:39:10.717Z,82.50
2018-12-20T22:41:41.369Z,70.47
2018-12-20T22:44:11.869Z,80.10
2018-12-20T22:46:42.863Z,77.87
2018-12-20T22:49:13.726Z,75.43
2018-12-20T22:51:45.051Z,86.57
2018-12-20T22:54:16.404Z,93.63
2018-12-20T22:56:46.557Z,104.63
2018-12-20T22:59:17.329Z,87.47
2018-12-20T23:01:47.418Z,116.57
2018-12-20T23:04:17.743Z,116.50
2018-12-20T23:06:48.441Z,123.33
2018-12-20T23:09:19.538Z,116.43
2018-12-20T23:11:49.723Z,120.43
2018-12-20T23:14:19.820Z,106.13
2018-12-20T23:16:53.758Z,103.83
2018-12-20T23:19:23.318Z,97.43
2018-12-20T23:21:54.345Z,89.23
2018-12-20T23:24:25.336Z,83.33
2018-12-20T23:26:56.061Z,55.83
2018-12-20T23:29:26.831Z,87.57
2018-12-20T23:31:57.391Z,88.30
2018-12-20T23:34:27.809Z,104.97
2018-12-20T23:36:57.850Z,81.43
2018-12-20T23:39:28.343Z,88.03
2018-12-20T23:41:58.613Z,95.40
2018-12-20T23:44:29.377Z,87.60
2018-12-20T23:47:00.583Z,82.43
2018-12-20T23:49:30.871Z,91.77
2018-12-20T23:52:01.665Z,84.20
2018-12-20T23:54:32.805Z,91.47
2018-12-20T23:57:03.971Z,86.17
2018-12-20T23:59:34.657Z,50.73
